sensor_id;sensor_type;location;lat;lon;timestamp;P1;durP1;ratioP1;P2;durP2;ratioP2
7941;SDS011;4016;50.758;7.150;2024-02-21T00:01:16;9.90;;;4.80;;
7941;SDS011;4016;50.758;7.150;2024-02-21T00:06:16;7.97;;;4.70;;
7941;SDS011;4016;50.758;7.150;2024-02-21T00:11:17;7.53;;;4.53;;
7941;SDS011;4016;50.758;7.150;2024-02-21T00:16:17;8.00;;;4.50;;
7941;SDS011;4016;50.758;7.150;2024-02-21T00:21:18;8.40;;;4.47;;
7941;SDS011;4016;50.758;7.150;2024-02-21T00:26:18;10.10;;;4.73;;
7941;SDS011;4016;50.758;7.150;2024-02-21T00:31:18;9.53;;;5.40;;
7941;SDS011;4016;50.758;7.150;2024-02-21T00:36:19;9.37;;;5.03;;
7941;SDS011;4016;50.758;7.150;2024-02-21T00:41:19;12.73;;;5.17;;
7941;SDS011;4016;50.758;7.150;2024-02-21T00:46:19;9.33;;;5.10;;
7941;SDS011;4016;50.758;7.150;2024-02-21T00:51:20;9.40;;;4.93;;
7941;SDS011;4016;50.758;7.150;2024-02-21T00:56:20;7.63;;;4.73;;
7941;SDS011;4016;50.758;7.150;2024-02-21T01:01:21;8.97;;;5.00;;
7941;SDS011;4016;50.758;7.150;2024-02-21T01:06:25;9.77;;;5.17;;
7941;SDS011;4016;50.758;7.150;2024-02-21T01:11:25;9.93;;;4.60;;
7941;SDS011;4016;50.758;7.150;2024-02-21T01:16:26;9.10;;;5.50;;
7941;SDS011;4016;50.758;7.150;2024-02-21T01:21:26;7.43;;;4.70;;
7941;SDS011;4016;50.758;7.150;2024-02-21T01:26:27;7.87;;;4.77;;
7941;SDS011;4016;50.758;7.150;2024-02-21T01:31:27;10.00;;;5.30;;
7941;SDS011;4016;50.758;7.150;2024-02-21T01:36:28;7.97;;;4.50;;
7941;SDS011;4016;50.758;7.150;2024-02-21T01:41:31;9.80;;;5.13;;
7941;SDS011;4016;50.758;7.150;2024-02-21T01:46:31;10.00;;;4.57;;
7941;SDS011;4016;50.758;7.150;2024-02-21T01:51:32;7.63;;;4.90;;
7941;SDS011;4016;50.758;7.150;2024-02-21T01:56:32;8.83;;;5.43;;
7941;SDS011;4016;50.758;7.150;2024-02-21T02:01:33;6.53;;;4.80;;
7941;SDS011;4016;50.758;7.150;2024-02-21T02:06:33;9.23;;;4.60;;
7941;SDS011;4016;50.758;7.150;2024-02-21T02:11:34;9.37;;;4.80;;
7941;SDS011;4016;50.758;7.150;2024-02-21T02:16:35;7.60;;;4.57;;
7941;SDS011;4016;50.758;7.150;2024-02-21T02:21:38;9.93;;;5.27;;
7941;SDS011;4016;50.758;7.150;2024-02-21T02:26:41;9.27;;;4.37;;
7941;SDS011;4016;50.758;7.150;2024-02-21T02:31:42;8.90;;;5.47;;
7941;SDS011;4016;50.758;7.150;2024-02-21T02:36:42;9.80;;;4.63;;
7941;SDS011;4016;50.758;7.150;2024-02-21T02:41:42;10.60;;;4.27;;
7941;SDS011;4016;50.758;7.150;2024-02-21T02:46:43;6.30;;;4.40;;
7941;SDS011;4016;50.758;7.150;2024-02-21T02:51:43;7.47;;;4.90;;
7941;SDS011;4016;50.758;7.150;2024-02-21T02:56:44;8.00;;;4.10;;
7941;SDS011;4016;50.758;7.150;2024-02-21T03:01:44;7.50;;;4.40;;
7941;SDS011;4016;50.758;7.150;2024-02-21T03:06:44;7.97;;;4.40;;
7941;SDS011;4016;50.758;7.150;2024-02-21T03:11:45;10.67;;;4.87;;
7941;SDS011;4016;50.758;7.150;2024-02-21T03:16:45;10.63;;;5.20;;
7941;SDS011;4016;50.758;7.150;2024-02-21T03:21:45;8.20;;;5.97;;
7941;SDS011;4016;50.758;7.150;2024-02-21T03:26:46;8.10;;;4.70;;
7941;SDS011;4016;50.758;7.150;2024-02-21T03:31:50;7.13;;;5.27;;
7941;SDS011;4016;50.758;7.150;2024-02-21T03:36:51;7.20;;;4.37;;
7941;SDS011;4016;50.758;7.150;2024-02-21T03:41:51;10.50;;;4.23;;
7941;SDS011;4016;50.758;7.150;2024-02-21T03:46:51;7.63;;;4.33;;
7941;SDS011;4016;50.758;7.150;2024-02-21T03:51:52;12.23;;;4.87;;
7941;SDS011;4016;50.758;7.150;2024-02-21T03:56:52;8.20;;;4.60;;
7941;SDS011;4016;50.758;7.150;2024-02-21T04:01:53;10.53;;;5.07;;
7941;SDS011;4016;50.758;7.150;2024-02-21T04:06:53;9.07;;;4.37;;
7941;SDS011;4016;50.758;7.150;2024-02-21T04:11:53;11.43;;;4.77;;
7941;SDS011;4016;50.758;7.150;2024-02-21T04:16:54;12.27;;;4.37;;
7941;SDS011;4016;50.758;7.150;2024-02-21T04:21:54;9.60;;;4.67;;
7941;SDS011;4016;50.758;7.150;2024-02-21T04:26:54;7.63;;;4.73;;
7941;SDS011;4016;50.758;7.150;2024-02-21T04:31:55;8.63;;;4.87;;
7941;SDS011;4016;50.758;7.150;2024-02-21T04:36:55;6.50;;;4.27;;
7941;SDS011;4016;50.758;7.150;2024-02-21T04:41:55;9.57;;;4.37;;
7941;SDS011;4016;50.758;7.150;2024-02-21T04:46:56;7.43;;;4.17;;
7941;SDS011;4016;50.758;7.150;2024-02-21T04:51:56;9.10;;;4.53;;
7941;SDS011;4016;50.758;7.150;2024-02-21T04:56:56;8.10;;;4.30;;
7941;SDS011;4016;50.758;7.150;2024-02-21T05:01:57;9.27;;;4.70;;
7941;SDS011;4016;50.758;7.150;2024-02-21T05:06:59;10.13;;;4.93;;
7941;SDS011;4016;50.758;7.150;2024-02-21T05:12:00;7.03;;;4.00;;
7941;SDS011;4016;50.758;7.150;2024-02-21T05:17:01;9.80;;;3.90;;
7941;SDS011;4016;50.758;7.150;2024-02-21T05:22:01;8.87;;;4.23;;
7941;SDS011;4016;50.758;7.150;2024-02-21T05:27:01;8.33;;;4.40;;
7941;SDS011;4016;50.758;7.150;2024-02-21T05:32:02;5.03;;;3.73;;
7941;SDS011;4016;50.758;7.150;2024-02-21T05:37:02;5.77;;;3.97;;
7941;SDS011;4016;50.758;7.150;2024-02-21T05:42:03;8.03;;;3.97;;
7941;SDS011;4016;50.758;7.150;2024-02-21T05:47:04;7.37;;;4.30;;
7941;SDS011;4016;50.758;7.150;2024-02-21T05:52:04;7.80;;;4.10;;
7941;SDS011;4016;50.758;7.150;2024-02-21T05:57:07;8.80;;;4.13;;
7941;SDS011;4016;50.758;7.150;2024-02-21T06:02:07;7.07;;;3.90;;
7941;SDS011;4016;50.758;7.150;2024-02-21T06:07:08;7.70;;;4.23;;
7941;SDS011;4016;50.758;7.150;2024-02-21T06:12:08;8.23;;;3.83;;
7941;SDS011;4016;50.758;7.150;2024-02-21T06:17:08;8.47;;;4.03;;
7941;SDS011;4016;50.758;7.150;2024-02-21T06:22:09;6.67;;;4.33;;
7941;SDS011;4016;50.758;7.150;2024-02-21T06:27:09;5.27;;;3.57;;
7941;SDS011;4016;50.758;7.150;2024-02-21T06:32:11;8.93;;;4.10;;
7941;SDS011;4016;50.758;7.150;2024-02-21T06:37:11;6.90;;;4.07;;
7941;SDS011;4016;50.758;7.150;2024-02-21T06:42:12;7.23;;;3.67;;
7941;SDS011;4016;50.758;7.150;2024-02-21T06:47:12;6.43;;;3.77;;
7941;SDS011;4016;50.758;7.150;2024-02-21T06:52:12;5.43;;;3.90;;
7941;SDS011;4016;50.758;7.150;2024-02-21T06:57:16;5.03;;;3.93;;
7941;SDS011;4016;50.758;7.150;2024-02-21T07:02:16;6.43;;;4.13;;
7941;SDS011;4016;50.758;7.150;2024-02-21T07:07:17;5.20;;;3.73;;
7941;SDS011;4016;50.758;7.150;2024-02-21T07:12:17;6.07;;;4.13;;
7941;SDS011;4016;50.758;7.150;2024-02-21T07:17:18;6.90;;;4.53;;
7941;SDS011;4016;50.758;7.150;2024-02-21T07:22:19;6.33;;;3.57;;
7941;SDS011;4016;50.758;7.150;2024-02-21T07:27:19;5.70;;;3.90;;
7941;SDS011;4016;50.758;7.150;2024-02-21T07:32:19;9.70;;;3.83;;
7941;SDS011;4016;50.758;7.150;2024-02-21T07:37:20;8.83;;;4.33;;
7941;SDS011;4016;50.758;7.150;2024-02-21T07:42:20;6.97;;;4.30;;
7941;SDS011;4016;50.758;7.150;2024-02-21T07:47:21;7.87;;;4.23;;
7941;SDS011;4016;50.758;7.150;2024-02-21T07:52:21;8.00;;;4.10;;
7941;SDS011;4016;50.758;7.150;2024-02-21T07:57:21;9.43;;;4.37;;
7941;SDS011;4016;50.758;7.150;2024-02-21T08:02:22;10.60;;;4.33;;
7941;SDS011;4016;50.758;7.150;2024-02-21T08:07:23;7.90;;;4.47;;
7941;SDS011;4016;50.758;7.150;2024-02-21T08:12:23;7.83;;;4.17;;
7941;SDS011;4016;50.758;7.150;2024-02-21T08:17:23;11.60;;;4.23;;
7941;SDS011;4016;50.758;7.150;2024-02-21T08:22:24;9.17;;;4.40;;
7941;SDS011;4016;50.758;7.150;2024-02-21T08:27:24;8.30;;;4.57;;
7941;SDS011;4016;50.758;7.150;2024-02-21T08:32:25;8.67;;;4.20;;
7941;SDS011;4016;50.758;7.150;2024-02-21T08:37:26;9.63;;;5.57;;
7941;SDS011;4016;50.758;7.150;2024-02-21T08:42:27;6.13;;;4.40;;
7941;SDS011;4016;50.758;7.150;2024-02-21T08:47:27;8.17;;;4.03;;
7941;SDS011;4016;50.758;7.150;2024-02-21T08:52:28;8.87;;;4.27;;
7941;SDS011;4016;50.758;7.150;2024-02-21T08:57:28;13.23;;;4.87;;
7941;SDS011;4016;50.758;7.150;2024-02-21T09:02:29;6.57;;;4.20;;
7941;SDS011;4016;50.758;7.150;2024-02-21T09:07:29;9.87;;;4.50;;
7941;SDS011;4016;50.758;7.150;2024-02-21T09:12:30;6.93;;;4.40;;
7941;SDS011;4016;50.758;7.150;2024-02-21T09:17:30;10.63;;;4.57;;
7941;SDS011;4016;50.758;7.150;2024-02-21T09:22:31;7.07;;;4.23;;
7941;SDS011;4016;50.758;7.150;2024-02-21T09:27:34;10.13;;;4.47;;
7941;SDS011;4016;50.758;7.150;2024-02-21T09:32:35;4.70;;;3.73;;
7941;SDS011;4016;50.758;7.150;2024-02-21T09:37:36;8.57;;;4.17;;
7941;SDS011;4016;50.758;7.150;2024-02-21T09:42:38;7.13;;;4.20;;
7941;SDS011;4016;50.758;7.150;2024-02-21T09:48:24;7.83;;;4.30;;
7941;SDS011;4016;50.758;7.150;2024-02-21T09:53:04;8.40;;;4.80;;
7941;SDS011;4016;50.758;7.150;2024-02-21T09:58:05;6.07;;;4.33;;
7941;SDS011;4016;50.758;7.150;2024-02-21T10:03:05;6.43;;;3.87;;
7941;SDS011;4016;50.758;7.150;2024-02-21T10:08:13;9.13;;;4.20;;
7941;SDS011;4016;50.758;7.150;2024-02-21T10:13:26;6.63;;;3.63;;
7941;SDS011;4016;50.758;7.150;2024-02-21T10:18:28;6.00;;;3.20;;
7941;SDS011;4016;50.758;7.150;2024-02-21T10:23:28;7.37;;;3.83;;
7941;SDS011;4016;50.758;7.150;2024-02-21T10:28:29;7.47;;;3.90;;
7941;SDS011;4016;50.758;7.150;2024-02-21T10:33:30;8.43;;;3.87;;
7941;SDS011;4016;50.758;7.150;2024-02-21T10:38:32;6.37;;;3.53;;
7941;SDS011;4016;50.758;7.150;2024-02-21T10:43:37;8.83;;;3.97;;
7941;SDS011;4016;50.758;7.150;2024-02-21T10:48:43;8.03;;;4.10;;
7941;SDS011;4016;50.758;7.150;2024-02-21T10:58:53;4.73;;;3.40;;
7941;SDS011;4016;50.758;7.150;2024-02-21T11:04:01;7.67;;;3.50;;
7941;SDS011;4016;50.758;7.150;2024-02-21T11:09:05;6.33;;;3.97;;
7941;SDS011;4016;50.758;7.150;2024-02-21T11:14:19;6.33;;;3.70;;
7941;SDS011;4016;50.758;7.150;2024-02-21T11:19:27;5.67;;;4.37;;
7941;SDS011;4016;50.758;7.150;2024-02-21T11:24:32;6.73;;;3.50;;
7941;SDS011;4016;50.758;7.150;2024-02-21T11:29:33;7.80;;;3.27;;
7941;SDS011;4016;50.758;7.150;2024-02-21T11:34:41;5.03;;;3.70;;
7941;SDS011;4016;50.758;7.150;2024-02-21T11:39:53;5.33;;;3.30;;
7941;SDS011;4016;50.758;7.150;2024-02-21T11:44:54;5.60;;;3.37;;
7941;SDS011;4016;50.758;7.150;2024-02-21T11:49:59;5.43;;;3.20;;
7941;SDS011;4016;50.758;7.150;2024-02-21T11:54:59;4.40;;;3.27;;
7941;SDS011;4016;50.758;7.150;2024-02-21T12:00:14;5.83;;;3.23;;
7941;SDS011;4016;50.758;7.150;2024-02-21T12:05:16;6.07;;;3.30;;
7941;SDS011;4016;50.758;7.150;2024-02-21T12:10:18;4.07;;;3.07;;
7941;SDS011;4016;50.758;7.150;2024-02-21T12:15:20;7.03;;;3.60;;
7941;SDS011;4016;50.758;7.150;2024-02-21T12:20:20;5.00;;;3.50;;
7941;SDS011;4016;50.758;7.150;2024-02-21T12:25:22;6.37;;;3.73;;
7941;SDS011;4016;50.758;7.150;2024-02-21T12:30:23;5.47;;;3.53;;
7941;SDS011;4016;50.758;7.150;2024-02-21T12:35:23;5.53;;;3.13;;
7941;SDS011;4016;50.758;7.150;2024-02-21T12:40:24;7.50;;;3.33;;
7941;SDS011;4016;50.758;7.150;2024-02-21T12:45:24;6.50;;;3.33;;
7941;SDS011;4016;50.758;7.150;2024-02-21T12:50:25;5.77;;;3.30;;
7941;SDS011;4016;50.758;7.150;2024-02-21T12:55:25;4.13;;;3.40;;
7941;SDS011;4016;50.758;7.150;2024-02-21T13:00:26;7.10;;;3.63;;
7941;SDS011;4016;50.758;7.150;2024-02-21T13:05:27;7.67;;;3.60;;
7941;SDS011;4016;50.758;7.150;2024-02-21T13:10:28;6.90;;;3.77;;
7941;SDS011;4016;50.758;7.150;2024-02-21T13:15:28;4.80;;;3.70;;
7941;SDS011;4016;50.758;7.150;2024-02-21T13:20:28;6.17;;;3.30;;
7941;SDS011;4016;50.758;7.150;2024-02-21T13:25:29;5.30;;;3.43;;
7941;SDS011;4016;50.758;7.150;2024-02-21T13:30:29;7.50;;;4.13;;
7941;SDS011;4016;50.758;7.150;2024-02-21T13:35:29;5.20;;;3.40;;
7941;SDS011;4016;50.758;7.150;2024-02-21T13:40:30;5.60;;;3.47;;
7941;SDS011;4016;50.758;7.150;2024-02-21T13:45:30;5.00;;;3.27;;
7941;SDS011;4016;50.758;7.150;2024-02-21T13:50:30;6.17;;;3.33;;
7941;SDS011;4016;50.758;7.150;2024-02-21T13:55:31;9.10;;;3.77;;
7941;SDS011;4016;50.758;7.150;2024-02-21T14:00:32;5.93;;;3.40;;
7941;SDS011;4016;50.758;7.150;2024-02-21T14:05:34;5.13;;;2.93;;
7941;SDS011;4016;50.758;7.150;2024-02-21T14:10:34;6.03;;;3.77;;
7941;SDS011;4016;50.758;7.150;2024-02-21T14:15:35;6.87;;;3.17;;
7941;SDS011;4016;50.758;7.150;2024-02-21T14:20:37;6.37;;;3.43;;
7941;SDS011;4016;50.758;7.150;2024-02-21T14:25:37;6.03;;;3.43;;
7941;SDS011;4016;50.758;7.150;2024-02-21T14:30:39;7.57;;;3.87;;
7941;SDS011;4016;50.758;7.150;2024-02-21T14:35:39;5.83;;;2.93;;
7941;SDS011;4016;50.758;7.150;2024-02-21T14:40:40;3.83;;;3.00;;
7941;SDS011;4016;50.758;7.150;2024-02-21T14:45:40;5.40;;;3.30;;
7941;SDS011;4016;50.758;7.150;2024-02-21T14:50:40;6.40;;;3.03;;
7941;SDS011;4016;50.758;7.150;2024-02-21T14:55:42;6.70;;;3.13;;
7941;SDS011;4016;50.758;7.150;2024-02-21T15:00:42;4.73;;;3.00;;
7941;SDS011;4016;50.758;7.150;2024-02-21T15:05:43;5.50;;;3.30;;
7941;SDS011;4016;50.758;7.150;2024-02-21T15:10:43;6.17;;;3.07;;
7941;SDS011;4016;50.758;7.150;2024-02-21T15:15:44;4.77;;;3.10;;
7941;SDS011;4016;50.758;7.150;2024-02-21T15:20:44;6.17;;;2.80;;
7941;SDS011;4016;50.758;7.150;2024-02-21T15:25:45;3.00;;;2.70;;
7941;SDS011;4016;50.758;7.150;2024-02-21T15:30:45;4.77;;;2.73;;
7941;SDS011;4016;50.758;7.150;2024-02-21T15:35:45;5.70;;;2.97;;
7941;SDS011;4016;50.758;7.150;2024-02-21T15:40:46;4.73;;;2.97;;
7941;SDS011;4016;50.758;7.150;2024-02-21T15:45:46;4.07;;;2.83;;
7941;SDS011;4016;50.758;7.150;2024-02-21T15:50:46;4.70;;;2.97;;
7941;SDS011;4016;50.758;7.150;2024-02-21T15:55:47;4.20;;;2.57;;
7941;SDS011;4016;50.758;7.150;2024-02-21T16:00:47;5.33;;;2.90;;
7941;SDS011;4016;50.758;7.150;2024-02-21T16:05:48;3.27;;;2.70;;
7941;SDS011;4016;50.758;7.150;2024-02-21T16:10:49;6.07;;;3.33;;
7941;SDS011;4016;50.758;7.150;2024-02-21T16:15:50;5.37;;;3.10;;
7941;SDS011;4016;50.758;7.150;2024-02-21T16:20:50;4.23;;;2.60;;
7941;SDS011;4016;50.758;7.150;2024-02-21T16:25:51;3.83;;;2.90;;
7941;SDS011;4016;50.758;7.150;2024-02-21T16:30:52;3.77;;;2.60;;
7941;SDS011;4016;50.758;7.150;2024-02-21T16:35:53;10.07;;;3.30;;
7941;SDS011;4016;50.758;7.150;2024-02-21T16:40:54;4.57;;;2.70;;
7941;SDS011;4016;50.758;7.150;2024-02-21T16:45:54;6.17;;;3.07;;
7941;SDS011;4016;50.758;7.150;2024-02-21T16:50:55;7.93;;;3.00;;
7941;SDS011;4016;50.758;7.150;2024-02-21T16:55:55;3.37;;;2.70;;
7941;SDS011;4016;50.758;7.150;2024-02-21T17:00:56;3.90;;;2.43;;
7941;SDS011;4016;50.758;7.150;2024-02-21T17:05:56;4.67;;;3.20;;
7941;SDS011;4016;50.758;7.150;2024-02-21T17:10:56;5.60;;;2.90;;
7941;SDS011;4016;50.758;7.150;2024-02-21T17:15:57;4.50;;;3.00;;
7941;SDS011;4016;50.758;7.150;2024-02-21T17:20:57;4.70;;;3.23;;
7941;SDS011;4016;50.758;7.150;2024-02-21T17:25:58;6.30;;;3.23;;
7941;SDS011;4016;50.758;7.150;2024-02-21T17:30:58;6.07;;;3.07;;
7941;SDS011;4016;50.758;7.150;2024-02-21T17:35:58;6.10;;;3.00;;
7941;SDS011;4016;50.758;7.150;2024-02-21T17:40:59;3.03;;;2.73;;
7941;SDS011;4016;50.758;7.150;2024-02-21T17:45:59;4.83;;;3.03;;
7941;SDS011;4016;50.758;7.150;2024-02-21T17:51:00;6.17;;;3.27;;
7941;SDS011;4016;50.758;7.150;2024-02-21T17:56:01;5.77;;;3.17;;
7941;SDS011;4016;50.758;7.150;2024-02-21T18:01:01;4.90;;;3.20;;
7941;SDS011;4016;50.758;7.150;2024-02-21T18:06:01;5.87;;;3.30;;
7941;SDS011;4016;50.758;7.150;2024-02-21T18:11:02;5.93;;;3.13;;
7941;SDS011;4016;50.758;7.150;2024-02-21T18:16:03;4.47;;;3.03;;
7941;SDS011;4016;50.758;7.150;2024-02-21T18:21:04;4.70;;;3.47;;
7941;SDS011;4016;50.758;7.150;2024-02-21T18:26:06;6.93;;;3.43;;
7941;SDS011;4016;50.758;7.150;2024-02-21T18:31:07;5.20;;;3.27;;
7941;SDS011;4016;50.758;7.150;2024-02-21T18:36:07;5.40;;;2.90;;
7941;SDS011;4016;50.758;7.150;2024-02-21T18:41:08;5.97;;;3.43;;
7941;SDS011;4016;50.758;7.150;2024-02-21T18:46:09;6.63;;;3.70;;
7941;SDS011;4016;50.758;7.150;2024-02-21T18:51:10;6.43;;;3.40;;
7941;SDS011;4016;50.758;7.150;2024-02-21T18:56:10;4.37;;;3.97;;
7941;SDS011;4016;50.758;7.150;2024-02-21T19:01:10;7.63;;;4.10;;
7941;SDS011;4016;50.758;7.150;2024-02-21T19:06:11;5.53;;;3.70;;
7941;SDS011;4016;50.758;7.150;2024-02-21T19:11:14;8.30;;;3.90;;
7941;SDS011;4016;50.758;7.150;2024-02-21T19:16:15;5.20;;;3.67;;
7941;SDS011;4016;50.758;7.150;2024-02-21T19:21:15;5.50;;;3.90;;
7941;SDS011;4016;50.758;7.150;2024-02-21T19:26:16;6.00;;;3.90;;
7941;SDS011;4016;50.758;7.150;2024-02-21T19:31:17;8.77;;;3.87;;
7941;SDS011;4016;50.758;7.150;2024-02-21T19:36:17;6.67;;;3.87;;
7941;SDS011;4016;50.758;7.150;2024-02-21T19:41:19;6.27;;;3.93;;
7941;SDS011;4016;50.758;7.150;2024-02-21T19:46:19;5.37;;;3.90;;
7941;SDS011;4016;50.758;7.150;2024-02-21T19:51:20;5.80;;;3.70;;
7941;SDS011;4016;50.758;7.150;2024-02-21T19:56:20;6.43;;;4.37;;
7941;SDS011;4016;50.758;7.150;2024-02-21T20:01:21;8.17;;;4.30;;
7941;SDS011;4016;50.758;7.150;2024-02-21T20:06:21;5.67;;;3.73;;
7941;SDS011;4016;50.758;7.150;2024-02-21T20:11:21;6.37;;;3.70;;
7941;SDS011;4016;50.758;7.150;2024-02-21T20:16:22;5.80;;;4.23;;
7941;SDS011;4016;50.758;7.150;2024-02-21T20:21:25;5.63;;;3.60;;
7941;SDS011;4016;50.758;7.150;2024-02-21T20:26:25;3.70;;;3.30;;
7941;SDS011;4016;50.758;7.150;2024-02-21T20:31:26;3.67;;;3.20;;
7941;SDS011;4016;50.758;7.150;2024-02-21T20:36:26;4.23;;;3.27;;
7941;SDS011;4016;50.758;7.150;2024-02-21T20:41:26;4.60;;;3.40;;
7941;SDS011;4016;50.758;7.150;2024-02-21T20:46:27;4.80;;;3.30;;
7941;SDS011;4016;50.758;7.150;2024-02-21T20:51:27;3.37;;;3.00;;
7941;SDS011;4016;50.758;7.150;2024-02-21T20:56:27;3.23;;;2.93;;
7941;SDS011;4016;50.758;7.150;2024-02-21T21:01:28;5.00;;;3.33;;
7941;SDS011;4016;50.758;7.150;2024-02-21T21:06:29;4.70;;;3.27;;
7941;SDS011;4016;50.758;7.150;2024-02-21T21:11:29;4.33;;;3.33;;
7941;SDS011;4016;50.758;7.150;2024-02-21T21:16:30;5.07;;;3.07;;
7941;SDS011;4016;50.758;7.150;2024-02-21T21:21:32;3.27;;;2.97;;
7941;SDS011;4016;50.758;7.150;2024-02-21T21:26:32;4.33;;;2.70;;
7941;SDS011;4016;50.758;7.150;2024-02-21T21:31:33;3.20;;;2.90;;
7941;SDS011;4016;50.758;7.150;2024-02-21T21:36:33;4.97;;;2.77;;
7941;SDS011;4016;50.758;7.150;2024-02-21T21:41:33;4.17;;;3.10;;
7941;SDS011;4016;50.758;7.150;2024-02-21T21:46:35;2.70;;;2.50;;
7941;SDS011;4016;50.758;7.150;2024-02-21T21:51:39;3.70;;;2.67;;
7941;SDS011;4016;50.758;7.150;2024-02-21T21:56:39;2.37;;;2.17;;
7941;SDS011;4016;50.758;7.150;2024-02-21T22:01:40;2.83;;;2.60;;
7941;SDS011;4016;50.758;7.150;2024-02-21T22:06:40;2.40;;;2.20;;
7941;SDS011;4016;50.758;7.150;2024-02-21T22:11:40;2.20;;;2.10;;
7941;SDS011;4016;50.758;7.150;2024-02-21T22:16:41;3.07;;;2.37;;
7941;SDS011;4016;50.758;7.150;2024-02-21T22:21:41;2.33;;;2.13;;
7941;SDS011;4016;50.758;7.150;2024-02-21T22:26:42;2.03;;;1.57;;
7941;SDS011;4016;50.758;7.150;2024-02-21T22:31:42;3.40;;;2.17;;
7941;SDS011;4016;50.758;7.150;2024-02-21T22:36:42;1.83;;;1.73;;
7941;SDS011;4016;50.758;7.150;2024-02-21T22:41:43;1.87;;;1.77;;
7941;SDS011;4016;50.758;7.150;2024-02-21T22:46:45;2.00;;;1.90;;
7941;SDS011;4016;50.758;7.150;2024-02-21T22:51:45;2.00;;;1.90;;
7941;SDS011;4016;50.758;7.150;2024-02-21T22:56:45;3.53;;;2.00;;
7941;SDS011;4016;50.758;7.150;2024-02-21T23:01:45;2.30;;;2.10;;
7941;SDS011;4016;50.758;7.150;2024-02-21T23:06:46;2.60;;;2.40;;
7941;SDS011;4016;50.758;7.150;2024-02-21T23:11:46;3.10;;;2.80;;
7941;SDS011;4016;50.758;7.150;2024-02-21T23:16:47;3.77;;;2.40;;
7941;SDS011;4016;50.758;7.150;2024-02-21T23:21:48;2.77;;;2.50;;
7941;SDS011;4016;50.758;7.150;2024-02-21T23:26:48;3.87;;;2.37;;
7941;SDS011;4016;50.758;7.150;2024-02-21T23:31:48;2.27;;;2.07;;
7941;SDS011;4016;50.758;7.150;2024-02-21T23:36:50;3.67;;;2.17;;
7941;SDS011;4016;50.758;7.150;2024-02-21T23:41:52;2.23;;;2.03;;
7941;SDS011;4016;50.758;7.150;2024-02-21T23:46:52;2.27;;;2.07;;
7941;SDS011;4016;50.758;7.150;2024-02-21T23:51:53;2.60;;;2.30;;
7941;SDS011;4016;50.758;7.150;2024-02-21T23:56:55;2.17;;;1.93;;
